createdAt,value
2019-01-27T00:04:16.850Z,2.90
2019-01-27T00:09:20.285Z,3.40
2019-01-27T00:14:23.707Z,3.93
2019-01-27T00:19:27.221Z,3.57
2019-01-27T00:24:30.716Z,3.23
2019-01-27T00:29:34.403Z,3.00
2019-01-27T00:34:37.899Z,2.87
2019-01-27T00:39:41.353Z,4.13
2019-01-27T00:44:44.835Z,3.43
2019-01-27T00:49:48.289Z,3.47
2019-01-27T00:54:51.748Z,3.90
2019-01-27T00:59:55.192Z,2.57
2019-01-27T01:04:58.614Z,2.80
2019-01-27T01:10:02.411Z,2.67
2019-01-27T01:15:09.418Z,2.70
2019-01-27T01:20:18.400Z,3.30
2019-01-27T01:25:23.555Z,4.27
2019-01-27T01:30:29.242Z,5.47
2019-01-27T01:35:32.742Z,2.93
2019-01-27T01:40:36.156Z,2.77
2019-01-27T01:45:39.620Z,2.37
2019-01-27T01:50:43.025Z,2.87
2019-01-27T01:55:46.468Z,2.87
2019-01-27T02:00:49.980Z,2.83
2019-01-27T02:05:53.421Z,2.40
2019-01-27T02:10:56.925Z,4.03
2019-01-27T02:16:02.482Z,5.13
2019-01-27T02:21:06.657Z,4.47
2019-01-27T02:26:10.405Z,2.30
2019-01-27T02:31:13.895Z,2.47
2019-01-27T02:36:17.357Z,2.87
2019-01-27T02:41:20.899Z,2.10
2019-01-27T02:46:24.406Z,2.50
2019-01-27T02:51:28.932Z,2.10
2019-01-27T02:56:32.368Z,2.07
2019-01-27T03:01:35.885Z,2.03
2019-01-27T03:06:41.036Z,2.20
2019-01-27T03:11:49.892Z,2.40
2019-01-27T03:16:53.971Z,3.83
2019-01-27T03:21:57.447Z,2.10
2019-01-27T03:27:00.863Z,1.73
2019-01-27T03:32:07.196Z,2.13
2019-01-27T03:37:10.651Z,1.70
2019-01-27T03:42:14.060Z,1.93
2019-01-27T03:47:17.480Z,1.70
2019-01-27T03:52:20.959Z,1.23
2019-01-27T03:57:24.386Z,2.47
2019-01-27T04:02:27.869Z,2.03
2019-01-27T04:07:31.229Z,1.60
2019-01-27T04:12:34.643Z,1.43
2019-01-27T04:17:38.070Z,1.87
2019-01-27T04:22:41.486Z,1.20
2019-01-27T04:27:45.000Z,1.10
2019-01-27T04:32:48.452Z,0.60
2019-01-27T04:37:51.892Z,0.83
2019-01-27T04:42:55.356Z,0.97
2019-01-27T04:47:58.840Z,1.13
2019-01-27T04:53:02.336Z,0.97
2019-01-27T04:58:06.469Z,0.70
2019-01-27T05:03:14.625Z,1.00
2019-01-27T05:08:18.096Z,1.97
2019-01-27T05:13:21.588Z,1.07
2019-01-27T05:18:25.019Z,0.77
2019-01-27T05:23:28.470Z,0.60
2019-01-27T05:28:31.883Z,0.33
2019-01-27T05:33:35.398Z,0.73
2019-01-27T05:38:38.850Z,0.50
2019-01-27T05:43:42.242Z,0.57
2019-01-27T05:48:45.680Z,0.60
2019-01-27T05:53:49.102Z,1.23
2019-01-27T05:58:52.523Z,0.57
2019-01-27T06:03:55.948Z,0.60
2019-01-27T06:08:59.372Z,1.00
2019-01-27T06:14:02.834Z,0.60
2019-01-27T06:19:06.300Z,0.93
2019-01-27T06:24:09.734Z,0.50
2019-01-27T06:29:13.337Z,0.80
2019-01-27T06:34:16.801Z,0.57
2019-01-27T06:39:20.235Z,0.60
2019-01-27T06:44:23.751Z,2.07
2019-01-27T06:49:27.241Z,0.60
2019-01-27T06:54:30.701Z,0.77
2019-01-27T06:59:35.756Z,1.20
2019-01-27T07:04:40.812Z,0.63
2019-01-27T07:10:02.341Z,0.83
2019-01-27T07:15:19.026Z,0.40
2019-01-27T07:20:29.573Z,0.57
2019-01-27T07:25:34.640Z,0.63
2019-01-27T07:30:42.398Z,0.70
2019-01-27T07:35:47.467Z,1.20
2019-01-27T07:40:52.548Z,0.60
2019-01-27T07:46:00.155Z,0.50
2019-01-27T07:51:05.292Z,0.93
2019-01-27T07:56:16.117Z,0.87
2019-01-27T08:01:21.187Z,1.80
2019-01-27T08:06:32.083Z,0.57
2019-01-27T08:11:42.772Z,0.67
2019-01-27T08:16:50.796Z,0.60
2019-01-27T08:22:05.184Z,0.63
2019-01-27T08:27:12.946Z,0.67
2019-01-27T08:32:18.031Z,0.57
2019-01-27T08:37:23.166Z,0.50
2019-01-27T08:42:31.173Z,0.43
2019-01-27T08:47:34.750Z,0.97
2019-01-27T08:52:38.162Z,0.40
2019-01-27T08:57:41.579Z,0.50
2019-01-27T09:02:49.073Z,0.40
2019-01-27T09:08:06.008Z,0.33
2019-01-27T09:13:16.977Z,0.27
2019-01-27T09:18:24.784Z,0.30
2019-01-27T09:28:58.521Z,0.57
2019-01-27T09:34:13.323Z,0.33
2019-01-27T09:39:18.864Z,1.90
2019-01-27T09:50:01.447Z,0.70
2019-01-27T09:55:09.857Z,0.87
2019-01-27T10:00:38.675Z,2.50
2019-01-27T10:05:52.382Z,1.60
2019-01-27T10:10:57.476Z,0.83
2019-01-27T10:16:05.959Z,0.80
2019-01-27T10:21:20.206Z,0.53
2019-01-27T10:26:37.306Z,0.93
2019-01-27T10:31:45.130Z,0.97
2019-01-27T10:36:59.216Z,1.87
2019-01-27T10:42:16.350Z,1.10
2019-01-27T10:47:36.413Z,1.67
2019-01-27T10:52:57.656Z,1.33
2019-01-27T11:03:37.430Z,0.77
2019-01-27T11:08:45.068Z,1.90
2019-01-27T11:13:52.844Z,1.00
2019-01-27T11:18:57.888Z,2.80
2019-01-27T11:24:08.545Z,2.93
2019-01-27T11:29:16.543Z,1.97
2019-01-27T11:34:30.553Z,2.47
2019-01-27T11:39:35.776Z,1.40
2019-01-27T11:44:43.519Z,1.50
2019-01-27T11:49:48.562Z,3.63
2019-01-27T11:54:51.976Z,1.87
2019-01-27T11:59:55.397Z,3.03
2019-01-27T12:04:58.826Z,2.33
2019-01-27T12:10:02.314Z,1.47
2019-01-27T12:15:11.637Z,3.13
2019-01-27T12:20:15.706Z,6.73
2019-01-27T12:25:19.213Z,8.00
2019-01-27T12:30:22.905Z,3.00
2019-01-27T12:35:26.619Z,1.73
2019-01-27T12:40:30.124Z,1.83
2019-01-27T12:45:33.660Z,3.90
2019-01-27T12:50:37.106Z,2.67
2019-01-27T12:55:40.533Z,5.20
2019-01-27T13:00:47.317Z,4.63
2019-01-27T13:05:50.853Z,2.50
2019-01-27T13:10:54.433Z,3.37
2019-01-27T13:15:57.839Z,5.47
2019-01-27T13:21:01.554Z,7.70
2019-01-27T13:26:05.338Z,1.37
2019-01-27T13:31:08.914Z,1.40
2019-01-27T13:36:12.400Z,1.60
2019-01-27T13:41:15.854Z,1.20
2019-01-27T13:46:19.238Z,2.30
2019-01-27T13:51:22.673Z,2.30
2019-01-27T13:56:26.170Z,2.03
2019-01-27T14:01:29.661Z,2.80
2019-01-27T14:06:33.110Z,1.90
2019-01-27T14:11:36.583Z,2.40
2019-01-27T14:16:40.113Z,2.20
2019-01-27T14:21:43.533Z,6.73
2019-01-27T14:26:46.960Z,2.63
2019-01-27T14:31:50.388Z,8.13
2019-01-27T14:36:53.900Z,3.00
2019-01-27T14:41:57.342Z,4.03
2019-01-27T14:47:00.779Z,4.03
2019-01-27T14:52:04.436Z,2.43
2019-01-27T14:57:07.885Z,3.77
2019-01-27T15:02:11.462Z,3.77
2019-01-27T15:07:15.091Z,3.43
2019-01-27T15:12:19.085Z,4.40
2019-01-27T15:17:22.518Z,3.47
2019-01-27T15:22:25.987Z,4.37
2019-01-27T15:27:29.418Z,7.17
2019-01-27T15:32:32.861Z,6.43
2019-01-27T15:37:36.301Z,5.43
2019-01-27T15:42:39.914Z,5.40
2019-01-27T15:47:43.412Z,10.10
2019-01-27T15:52:46.906Z,5.73
2019-01-27T15:57:50.476Z,5.33
2019-01-27T16:02:54.041Z,6.43
2019-01-27T16:07:57.540Z,8.00
2019-01-27T16:13:01.083Z,8.43
2019-01-27T16:18:06.688Z,8.83
2019-01-27T16:23:26.824Z,9.60
2019-01-27T16:28:30.274Z,12.97
2019-01-27T16:33:35.344Z,12.40
2019-01-27T16:38:38.927Z,11.43
2019-01-27T16:44:01.464Z,12.17
2019-01-27T16:49:05.555Z,11.73
2019-01-27T16:54:08.981Z,13.20
2019-01-27T16:59:13.382Z,9.30
2019-01-27T17:04:16.918Z,15.07
2019-01-27T17:09:20.420Z,6.33
2019-01-27T17:14:23.852Z,5.77
2019-01-27T17:19:27.289Z,4.50
2019-01-27T17:24:30.863Z,3.57
2019-01-27T17:29:34.267Z,4.23
2019-01-27T17:34:37.717Z,3.00
2019-01-27T17:39:41.139Z,6.00
2019-01-27T17:44:44.557Z,7.73
2019-01-27T17:49:48.018Z,6.57
2019-01-27T17:54:51.569Z,6.40
2019-01-27T17:59:56.714Z,10.63
2019-01-27T18:05:02.299Z,27.80
2019-01-27T18:10:10.574Z,15.00
2019-01-27T18:15:14.056Z,8.57
2019-01-27T18:20:17.546Z,7.23
2019-01-27T18:25:21.066Z,8.63
2019-01-27T18:30:24.818Z,15.37
2019-01-27T18:35:28.284Z,13.07
2019-01-27T18:40:31.714Z,12.27
2019-01-27T18:45:35.209Z,9.97
2019-01-27T18:50:38.652Z,11.60
2019-01-27T18:55:43.754Z,14.10
2019-01-27T19:00:48.962Z,12.67
2019-01-27T19:06:06.267Z,16.67
2019-01-27T19:11:14.159Z,9.50
2019-01-27T19:16:19.210Z,10.20
2019-01-27T19:21:30.264Z,7.10
2019-01-27T19:26:41.140Z,9.87
2019-01-27T19:31:46.237Z,12.50
2019-01-27T19:37:02.981Z,14.87
2019-01-27T19:42:08.235Z,8.03
2019-01-27T19:47:13.324Z,17.50
2019-01-27T19:52:29.406Z,12.70
2019-01-27T19:57:40.080Z,14.53
2019-01-27T20:02:54.707Z,9.80
2019-01-27T20:08:00.082Z,10.40
2019-01-27T20:13:14.024Z,12.03
2019-01-27T20:18:35.435Z,10.83
2019-01-27T20:23:58.695Z,14.67
2019-01-27T20:29:03.766Z,8.73
2019-01-27T20:34:15.786Z,9.97
2019-01-27T20:39:36.983Z,12.50
2019-01-27T20:44:54.181Z,9.90
2019-01-27T20:50:02.308Z,13.63
2019-01-27T20:55:12.225Z,8.67
2019-01-27T21:05:32.101Z,8.37
2019-01-27T21:10:40.043Z,6.90
2019-01-27T21:15:45.113Z,23.60
2019-01-27T21:20:53.446Z,16.33
2019-01-27T21:25:53.796Z,10.67
2019-01-27T21:30:57.232Z,12.67
2019-01-27T21:36:00.637Z,11.63
2019-01-27T21:41:04.176Z,34.70
2019-01-27T21:46:07.777Z,13.97
2019-01-27T21:51:11.225Z,16.13
2019-01-27T21:56:14.636Z,9.93
2019-01-27T22:01:18.073Z,14.43
2019-01-27T22:06:21.671Z,13.93
2019-01-27T22:11:25.113Z,25.03
2019-01-27T22:16:28.544Z,18.53
2019-01-27T22:21:31.969Z,22.20
2019-01-27T22:26:35.436Z,20.87
2019-01-27T22:31:38.930Z,23.57
2019-01-27T22:36:42.464Z,22.80
2019-01-27T22:41:45.946Z,26.33
2019-01-27T22:46:49.375Z,22.47
2019-01-27T22:51:53.301Z,19.47
2019-01-27T22:56:56.731Z,28.47
2019-01-27T23:02:00.222Z,27.63
2019-01-27T23:07:04.156Z,30.70
2019-01-27T23:12:07.659Z,23.97
2019-01-27T23:17:11.091Z,27.97
2019-01-27T23:22:14.647Z,25.13
2019-01-27T23:27:18.594Z,19.43
2019-01-27T23:32:22.016Z,18.93
2019-01-27T23:37:25.463Z,20.13
2019-01-27T23:42:28.965Z,21.20
2019-01-27T23:47:32.407Z,25.13
2019-01-27T23:52:35.859Z,21.10
2019-01-27T23:57:39.434Z,18.20
